sensor_id;sensor_type;location;lat;lon;timestamp;P1;durP1;ratioP1;P2;durP2;ratioP2
78224;SDS011;67498;53.650;10.090;2023-03-23T00:01:56;10.60;;;2.47;;
78224;SDS011;67498;53.650;10.090;2023-03-23T00:04:21;4.93;;;1.60;;
78224;SDS011;67498;53.650;10.090;2023-03-23T00:06:47;8.17;;;2.60;;
78224;SDS011;67498;53.650;10.090;2023-03-23T00:09:14;4.65;;;1.52;;
78224;SDS011;67498;53.650;10.090;2023-03-23T00:11:40;7.38;;;2.72;;
78224;SDS011;67498;53.650;10.090;2023-03-23T00:14:05;9.53;;;2.37;;
78224;SDS011;67498;53.650;10.090;2023-03-23T00:16:32;5.95;;;2.25;;
78224;SDS011;67498;53.650;10.090;2023-03-23T00:18:58;10.47;;;3.03;;
78224;SDS011;67498;53.650;10.090;2023-03-23T00:21:25;7.88;;;2.50;;
78224;SDS011;67498;53.650;10.090;2023-03-23T00:24:05;5.88;;;2.22;;
78224;SDS011;67498;53.650;10.090;2023-03-23T00:26:32;8.68;;;2.58;;
78224;SDS011;67498;53.650;10.090;2023-03-23T00:28:58;9.20;;;3.28;;
78224;SDS011;67498;53.650;10.090;2023-03-23T00:31:25;9.87;;;3.20;;
78224;SDS011;67498;53.650;10.090;2023-03-23T00:34:00;5.90;;;1.85;;
78224;SDS011;67498;53.650;10.090;2023-03-23T00:36:26;8.32;;;2.92;;
78224;SDS011;67498;53.650;10.090;2023-03-23T00:38:52;7.10;;;3.10;;
78224;SDS011;67498;53.650;10.090;2023-03-23T00:41:17;4.28;;;1.40;;
78224;SDS011;67498;53.650;10.090;2023-03-23T00:43:42;9.25;;;3.60;;
78224;SDS011;67498;53.650;10.090;2023-03-23T00:46:08;7.20;;;2.90;;
78224;SDS011;67498;53.650;10.090;2023-03-23T00:48:35;9.18;;;3.72;;
78224;SDS011;67498;53.650;10.090;2023-03-23T00:51:01;6.50;;;2.50;;
78224;SDS011;67498;53.650;10.090;2023-03-23T00:53:30;11.18;;;2.97;;
78224;SDS011;67498;53.650;10.090;2023-03-23T00:55:56;7.87;;;3.03;;
78224;SDS011;67498;53.650;10.090;2023-03-23T00:58:21;7.60;;;2.93;;
78224;SDS011;67498;53.650;10.090;2023-03-23T01:00:46;9.20;;;3.50;;
78224;SDS011;67498;53.650;10.090;2023-03-23T01:03:11;17.42;;;3.83;;
78224;SDS011;67498;53.650;10.090;2023-03-23T01:05:37;8.57;;;3.40;;
78224;SDS011;67498;53.650;10.090;2023-03-23T01:08:03;8.10;;;3.40;;
78224;SDS011;67498;53.650;10.090;2023-03-23T01:10:28;11.17;;;3.63;;
78224;SDS011;67498;53.650;10.090;2023-03-23T01:12:57;12.60;;;2.53;;
78224;SDS011;67498;53.650;10.090;2023-03-23T01:15:23;11.05;;;3.70;;
78224;SDS011;67498;53.650;10.090;2023-03-23T01:17:48;8.17;;;2.97;;
78224;SDS011;67498;53.650;10.090;2023-03-23T01:20:14;8.97;;;3.50;;
78224;SDS011;67498;53.650;10.090;2023-03-23T01:22:40;13.77;;;4.13;;
78224;SDS011;67498;53.650;10.090;2023-03-23T01:25:06;12.48;;;4.07;;
78224;SDS011;67498;53.650;10.090;2023-03-23T01:27:31;10.45;;;3.00;;
78224;SDS011;67498;53.650;10.090;2023-03-23T01:29:56;8.70;;;3.27;;
78224;SDS011;67498;53.650;10.090;2023-03-23T01:32:22;8.77;;;3.40;;
78224;SDS011;67498;53.650;10.090;2023-03-23T01:34:47;9.67;;;2.80;;
78224;SDS011;67498;53.650;10.090;2023-03-23T01:37:12;7.37;;;3.00;;
78224;SDS011;67498;53.650;10.090;2023-03-23T01:39:37;6.70;;;2.53;;
78224;SDS011;67498;53.650;10.090;2023-03-23T01:42:03;6.47;;;2.63;;
78224;SDS011;67498;53.650;10.090;2023-03-23T01:46:56;10.10;;;3.40;;
78224;SDS011;67498;53.650;10.090;2023-03-23T01:49:23;9.63;;;3.70;;
78224;SDS011;67498;53.650;10.090;2023-03-23T01:51:51;11.82;;;2.97;;
78224;SDS011;67498;53.650;10.090;2023-03-23T01:54:18;10.70;;;3.13;;
78224;SDS011;67498;53.650;10.090;2023-03-23T01:56:47;7.83;;;3.23;;
78224;SDS011;67498;53.650;10.090;2023-03-23T01:59:12;9.77;;;2.83;;
78224;SDS011;67498;53.650;10.090;2023-03-23T02:01:38;8.85;;;2.97;;
78224;SDS011;67498;53.650;10.090;2023-03-23T02:04:08;3.60;;;1.37;;
78224;SDS011;67498;53.650;10.090;2023-03-23T02:06:33;9.20;;;3.63;;
78224;SDS011;67498;53.650;10.090;2023-03-23T02:08:59;11.33;;;3.43;;
78224;SDS011;67498;53.650;10.090;2023-03-23T02:11:24;7.78;;;3.15;;
78224;SDS011;67498;53.650;10.090;2023-03-23T02:13:49;9.60;;;3.43;;
78224;SDS011;67498;53.650;10.090;2023-03-23T02:29:20;10.95;;;4.82;;
78224;SDS011;67498;53.650;10.090;2023-03-23T02:34:38;7.97;;;3.75;;
78224;SDS011;67498;53.650;10.090;2023-03-23T02:37:06;8.23;;;3.77;;
78224;SDS011;67498;53.650;10.090;2023-03-23T02:39:34;10.60;;;3.22;;
78224;SDS011;67498;53.650;10.090;2023-03-23T02:42:03;7.47;;;3.25;;
78224;SDS011;67498;53.650;10.090;2023-03-23T02:44:29;9.52;;;3.33;;
78224;SDS011;67498;53.650;10.090;2023-03-23T02:46:56;9.65;;;3.90;;
78224;SDS011;67498;53.650;10.090;2023-03-23T02:49:21;7.70;;;3.50;;
78224;SDS011;67498;53.650;10.090;2023-03-23T02:51:48;9.15;;;3.05;;
78224;SDS011;67498;53.650;10.090;2023-03-23T02:54:15;11.35;;;3.47;;
78224;SDS011;67498;53.650;10.090;2023-03-23T02:56:41;10.35;;;3.95;;
78224;SDS011;67498;53.650;10.090;2023-03-23T02:59:06;6.10;;;2.70;;
78224;SDS011;67498;53.650;10.090;2023-03-23T03:03:57;7.27;;;2.70;;
78224;SDS011;67498;53.650;10.090;2023-03-23T03:09:07;11.23;;;3.47;;
78224;SDS011;67498;53.650;10.090;2023-03-23T03:11:35;8.43;;;2.63;;
78224;SDS011;67498;53.650;10.090;2023-03-23T03:14:06;8.40;;;2.92;;
78224;SDS011;67498;53.650;10.090;2023-03-23T03:16:40;11.90;;;3.77;;
78224;SDS011;67498;53.650;10.090;2023-03-23T03:19:17;7.97;;;2.95;;
78224;SDS011;67498;53.650;10.090;2023-03-23T03:21:46;8.70;;;3.17;;
78224;SDS011;67498;53.650;10.090;2023-03-23T03:24:12;11.05;;;3.47;;
78224;SDS011;67498;53.650;10.090;2023-03-23T03:26:39;7.05;;;2.90;;
78224;SDS011;67498;53.650;10.090;2023-03-23T03:29:06;6.73;;;2.63;;
78224;SDS011;67498;53.650;10.090;2023-03-23T03:31:36;8.45;;;2.97;;
78224;SDS011;67498;53.650;10.090;2023-03-23T03:34:02;2.95;;;1.13;;
78224;SDS011;67498;53.650;10.090;2023-03-23T03:36:28;8.30;;;3.23;;
78224;SDS011;67498;53.650;10.090;2023-03-23T03:38:59;7.40;;;3.30;;
78224;SDS011;67498;53.650;10.090;2023-03-23T03:41:25;8.25;;;3.90;;
78224;SDS011;67498;53.650;10.090;2023-03-23T03:43:50;9.65;;;4.30;;
78224;SDS011;67498;53.650;10.090;2023-03-23T03:46:15;8.30;;;2.93;;
78224;SDS011;67498;53.650;10.090;2023-03-23T03:48:40;8.50;;;3.60;;
78224;SDS011;67498;53.650;10.090;2023-03-23T03:51:05;6.30;;;2.45;;
78224;SDS011;67498;53.650;10.090;2023-03-23T03:53:31;9.50;;;2.57;;
78224;SDS011;67498;53.650;10.090;2023-03-23T03:55:56;11.17;;;3.70;;
78224;SDS011;67498;53.650;10.090;2023-03-23T03:58:24;9.35;;;3.65;;
78224;SDS011;67498;53.650;10.090;2023-03-23T04:00:50;4.33;;;1.63;;
78224;SDS011;67498;53.650;10.090;2023-03-23T04:03:15;6.73;;;2.20;;
78224;SDS011;67498;53.650;10.090;2023-03-23T04:05:41;8.27;;;3.35;;
78224;SDS011;67498;53.650;10.090;2023-03-23T04:08:07;11.47;;;5.07;;
78224;SDS011;67498;53.650;10.090;2023-03-23T04:10:32;10.13;;;3.83;;
78224;SDS011;67498;53.650;10.090;2023-03-23T04:12:58;11.50;;;4.28;;
78224;SDS011;67498;53.650;10.090;2023-03-23T04:15:23;14.03;;;4.33;;
78224;SDS011;67498;53.650;10.090;2023-03-23T04:17:48;11.93;;;4.67;;
78224;SDS011;67498;53.650;10.090;2023-03-23T04:20:15;11.07;;;3.78;;
78224;SDS011;67498;53.650;10.090;2023-03-23T04:22:43;10.45;;;4.47;;
78224;SDS011;67498;53.650;10.090;2023-03-23T04:25:09;10.67;;;4.17;;
78224;SDS011;67498;53.650;10.090;2023-03-23T04:27:35;7.15;;;2.95;;
78224;SDS011;67498;53.650;10.090;2023-03-23T04:30:01;13.07;;;3.88;;
78224;SDS011;67498;53.650;10.090;2023-03-23T04:32:26;14.87;;;4.77;;
78224;SDS011;67498;53.650;10.090;2023-03-23T04:34:53;10.50;;;3.47;;
78224;SDS011;67498;53.650;10.090;2023-03-23T04:37:19;10.80;;;3.70;;
78224;SDS011;67498;53.650;10.090;2023-03-23T04:39:44;11.27;;;3.63;;
78224;SDS011;67498;53.650;10.090;2023-03-23T04:42:10;9.18;;;3.60;;
78224;SDS011;67498;53.650;10.090;2023-03-23T04:44:36;13.48;;;4.50;;
78224;SDS011;67498;53.650;10.090;2023-03-23T04:47:01;11.73;;;3.80;;
78224;SDS011;67498;53.650;10.090;2023-03-23T04:49:27;23.90;;;10.87;;
78224;SDS011;67498;53.650;10.090;2023-03-23T04:51:52;10.40;;;4.60;;
78224;SDS011;67498;53.650;10.090;2023-03-23T04:54:17;11.60;;;4.27;;
78224;SDS011;67498;53.650;10.090;2023-03-23T04:56:42;8.73;;;3.50;;
78224;SDS011;67498;53.650;10.090;2023-03-23T04:59:08;7.10;;;3.47;;
78224;SDS011;67498;53.650;10.090;2023-03-23T05:01:33;11.50;;;3.20;;
78224;SDS011;67498;53.650;10.090;2023-03-23T05:04:02;8.70;;;2.77;;
78224;SDS011;67498;53.650;10.090;2023-03-23T05:06:27;8.20;;;3.50;;
78224;SDS011;67498;53.650;10.090;2023-03-23T05:08:52;9.73;;;3.77;;
78224;SDS011;67498;53.650;10.090;2023-03-23T05:11:17;15.13;;;5.80;;
78224;SDS011;67498;53.650;10.090;2023-03-23T05:13:42;7.53;;;3.92;;
78224;SDS011;67498;53.650;10.090;2023-03-23T05:16:09;7.38;;;3.08;;
78224;SDS011;67498;53.650;10.090;2023-03-23T05:18:34;9.95;;;4.25;;
78224;SDS011;67498;53.650;10.090;2023-03-23T05:21:00;9.03;;;4.37;;
78224;SDS011;67498;53.650;10.090;2023-03-23T05:23:25;13.03;;;4.03;;
78224;SDS011;67498;53.650;10.090;2023-03-23T05:25:54;11.67;;;3.57;;
78224;SDS011;67498;53.650;10.090;2023-03-23T05:28:19;8.82;;;4.32;;
78224;SDS011;67498;53.650;10.090;2023-03-23T05:30:46;15.38;;;5.05;;
78224;SDS011;67498;53.650;10.090;2023-03-23T05:33:12;9.07;;;3.43;;
78224;SDS011;67498;53.650;10.090;2023-03-23T05:35:37;8.48;;;3.80;;
78224;SDS011;67498;53.650;10.090;2023-03-23T05:38:02;8.82;;;3.80;;
78224;SDS011;67498;53.650;10.090;2023-03-23T05:40:29;13.88;;;4.85;;
78224;SDS011;67498;53.650;10.090;2023-03-23T05:42:55;9.07;;;4.10;;
78224;SDS011;67498;53.650;10.090;2023-03-23T05:45:22;13.23;;;5.88;;
78224;SDS011;67498;53.650;10.090;2023-03-23T05:47:47;11.27;;;4.77;;
78224;SDS011;67498;53.650;10.090;2023-03-23T05:50:13;8.98;;;3.28;;
78224;SDS011;67498;53.650;10.090;2023-03-23T05:52:38;8.53;;;3.53;;
78224;SDS011;67498;53.650;10.090;2023-03-23T05:55:04;8.87;;;4.47;;
78224;SDS011;67498;53.650;10.090;2023-03-23T05:57:30;7.93;;;3.85;;
78224;SDS011;67498;53.650;10.090;2023-03-23T05:59:56;15.43;;;2.80;;
78224;SDS011;67498;53.650;10.090;2023-03-23T06:02:22;9.85;;;3.10;;
78224;SDS011;67498;53.650;10.090;2023-03-23T06:04:49;9.50;;;3.90;;
78224;SDS011;67498;53.650;10.090;2023-03-23T06:07:14;10.17;;;3.37;;
78224;SDS011;67498;53.650;10.090;2023-03-23T06:09:40;10.43;;;4.13;;
78224;SDS011;67498;53.650;10.090;2023-03-23T06:12:06;10.35;;;3.17;;
78224;SDS011;67498;53.650;10.090;2023-03-23T06:14:31;9.40;;;3.63;;
78224;SDS011;67498;53.650;10.090;2023-03-23T06:16:56;6.67;;;2.90;;
78224;SDS011;67498;53.650;10.090;2023-03-23T06:19:21;5.90;;;2.58;;
78224;SDS011;67498;53.650;10.090;2023-03-23T06:21:47;5.97;;;2.40;;
78224;SDS011;67498;53.650;10.090;2023-03-23T06:24:13;7.38;;;2.80;;
78224;SDS011;67498;53.650;10.090;2023-03-23T06:26:39;5.33;;;2.33;;
78224;SDS011;67498;53.650;10.090;2023-03-23T06:29:06;6.75;;;2.15;;
78224;SDS011;67498;53.650;10.090;2023-03-23T06:31:36;4.45;;;1.58;;
78224;SDS011;67498;53.650;10.090;2023-03-23T06:34:02;7.40;;;2.63;;
78224;SDS011;67498;53.650;10.090;2023-03-23T06:36:27;6.90;;;2.78;;
78224;SDS011;67498;53.650;10.090;2023-03-23T06:38:53;6.33;;;2.13;;
78224;SDS011;67498;53.650;10.090;2023-03-23T06:41:18;12.50;;;2.25;;
78224;SDS011;67498;53.650;10.090;2023-03-23T06:43:43;6.93;;;2.13;;
78224;SDS011;67498;53.650;10.090;2023-03-23T06:46:11;7.20;;;2.13;;
78224;SDS011;67498;53.650;10.090;2023-03-23T06:48:36;5.90;;;1.97;;
78224;SDS011;67498;53.650;10.090;2023-03-23T06:51:01;4.80;;;2.13;;
78224;SDS011;67498;53.650;10.090;2023-03-23T06:53:27;7.28;;;2.55;;
78224;SDS011;67498;53.650;10.090;2023-03-23T06:55:52;6.07;;;1.67;;
78224;SDS011;67498;53.650;10.090;2023-03-23T06:58:17;5.40;;;1.65;;
78224;SDS011;67498;53.650;10.090;2023-03-23T07:00:43;6.37;;;2.10;;
78224;SDS011;67498;53.650;10.090;2023-03-23T07:03:09;6.88;;;2.60;;
78224;SDS011;67498;53.650;10.090;2023-03-23T07:05:34;5.73;;;1.57;;
78224;SDS011;67498;53.650;10.090;2023-03-23T07:08:01;6.55;;;1.98;;
78224;SDS011;67498;53.650;10.090;2023-03-23T07:10:26;5.70;;;1.93;;
78224;SDS011;67498;53.650;10.090;2023-03-23T07:12:51;7.27;;;2.17;;
78224;SDS011;67498;53.650;10.090;2023-03-23T07:15:16;4.20;;;1.57;;
78224;SDS011;67498;53.650;10.090;2023-03-23T07:17:42;4.83;;;1.23;;
78224;SDS011;67498;53.650;10.090;2023-03-23T07:20:07;8.97;;;1.97;;
78224;SDS011;67498;53.650;10.090;2023-03-23T07:22:32;4.77;;;1.37;;
78224;SDS011;67498;53.650;10.090;2023-03-23T07:24:57;5.10;;;1.40;;
78224;SDS011;67498;53.650;10.090;2023-03-23T07:27:23;5.32;;;1.60;;
78224;SDS011;67498;53.650;10.090;2023-03-23T07:29:48;4.20;;;1.60;;
78224;SDS011;67498;53.650;10.090;2023-03-23T07:32:13;6.70;;;1.20;;
78224;SDS011;67498;53.650;10.090;2023-03-23T07:34:39;10.70;;;1.23;;
78224;SDS011;67498;53.650;10.090;2023-03-23T07:37:04;9.10;;;1.57;;
78224;SDS011;67498;53.650;10.090;2023-03-23T07:39:29;6.78;;;2.03;;
78224;SDS011;67498;53.650;10.090;2023-03-23T07:41:55;4.10;;;1.30;;
78224;SDS011;67498;53.650;10.090;2023-03-23T07:44:20;6.47;;;1.73;;
78224;SDS011;67498;53.650;10.090;2023-03-23T07:46:45;5.97;;;1.80;;
78224;SDS011;67498;53.650;10.090;2023-03-23T07:49:11;7.60;;;1.55;;
78224;SDS011;67498;53.650;10.090;2023-03-23T07:51:36;5.27;;;1.60;;
78224;SDS011;67498;53.650;10.090;2023-03-23T07:54:04;6.70;;;1.90;;
78224;SDS011;67498;53.650;10.090;2023-03-23T07:56:32;4.50;;;1.53;;
78224;SDS011;67498;53.650;10.090;2023-03-23T07:58:57;5.43;;;1.53;;
78224;SDS011;67498;53.650;10.090;2023-03-23T08:01:22;7.33;;;1.90;;
78224;SDS011;67498;53.650;10.090;2023-03-23T08:03:49;5.97;;;1.70;;
78224;SDS011;67498;53.650;10.090;2023-03-23T08:06:15;6.60;;;1.83;;
78224;SDS011;67498;53.650;10.090;2023-03-23T08:08:40;5.27;;;1.23;;
78224;SDS011;67498;53.650;10.090;2023-03-23T08:11:05;9.43;;;1.70;;
78224;SDS011;67498;53.650;10.090;2023-03-23T08:13:31;3.60;;;0.90;;
78224;SDS011;67498;53.650;10.090;2023-03-23T08:15:58;5.35;;;0.98;;
78224;SDS011;67498;53.650;10.090;2023-03-23T08:18:23;2.55;;;0.50;;
78224;SDS011;67498;53.650;10.090;2023-03-23T08:20:49;1.80;;;0.30;;
78224;SDS011;67498;53.650;10.090;2023-03-23T08:23:15;1.83;;;0.20;;
78224;SDS011;67498;53.650;10.090;2023-03-23T08:25:41;1.73;;;0.33;;
78224;SDS011;67498;53.650;10.090;2023-03-23T08:28:07;3.67;;;0.40;;
78224;SDS011;67498;53.650;10.090;2023-03-23T08:30:34;2.53;;;0.40;;
78224;SDS011;67498;53.650;10.090;2023-03-23T08:32:59;3.27;;;0.47;;
78224;SDS011;67498;53.650;10.090;2023-03-23T08:35:25;4.90;;;0.45;;
78224;SDS011;67498;53.650;10.090;2023-03-23T08:37:51;3.13;;;0.40;;
78224;SDS011;67498;53.650;10.090;2023-03-23T08:40:18;1.75;;;0.30;;
78224;SDS011;67498;53.650;10.090;2023-03-23T08:42:44;3.08;;;0.40;;
78224;SDS011;67498;53.650;10.090;2023-03-23T08:45:10;1.60;;;0.30;;
78224;SDS011;67498;53.650;10.090;2023-03-23T08:47:36;2.17;;;0.50;;
78224;SDS011;67498;53.650;10.090;2023-03-23T08:50:03;2.47;;;0.47;;
78224;SDS011;67498;53.650;10.090;2023-03-23T08:52:29;4.07;;;0.70;;
78224;SDS011;67498;53.650;10.090;2023-03-23T08:54:54;2.95;;;0.43;;
78224;SDS011;67498;53.650;10.090;2023-03-23T08:57:20;2.03;;;0.50;;
78224;SDS011;67498;53.650;10.090;2023-03-23T08:59:45;6.73;;;1.50;;
78224;SDS011;67498;53.650;10.090;2023-03-23T09:02:11;3.40;;;0.73;;
78224;SDS011;67498;53.650;10.090;2023-03-23T09:04:39;3.30;;;0.60;;
78224;SDS011;67498;53.650;10.090;2023-03-23T09:07:07;3.70;;;0.70;;
78224;SDS011;67498;53.650;10.090;2023-03-23T09:09:32;4.75;;;0.77;;
78224;SDS011;67498;53.650;10.090;2023-03-23T09:11:59;5.53;;;0.83;;
78224;SDS011;67498;53.650;10.090;2023-03-23T09:14:24;4.30;;;1.00;;
78224;SDS011;67498;53.650;10.090;2023-03-23T09:16:50;3.63;;;1.13;;
78224;SDS011;67498;53.650;10.090;2023-03-23T09:19:15;6.70;;;1.27;;
78224;SDS011;67498;53.650;10.090;2023-03-23T09:21:40;4.77;;;1.10;;
78224;SDS011;67498;53.650;10.090;2023-03-23T09:24:06;8.48;;;1.15;;
78224;SDS011;67498;53.650;10.090;2023-03-23T09:26:31;4.73;;;0.90;;
78224;SDS011;67498;53.650;10.090;2023-03-23T09:28:57;4.60;;;1.40;;
78224;SDS011;67498;53.650;10.090;2023-03-23T09:31:23;8.63;;;1.20;;
78224;SDS011;67498;53.650;10.090;2023-03-23T09:33:51;5.53;;;1.03;;
78224;SDS011;67498;53.650;10.090;2023-03-23T09:36:17;6.90;;;1.00;;
78224;SDS011;67498;53.650;10.090;2023-03-23T09:38:42;5.20;;;0.90;;
78224;SDS011;67498;53.650;10.090;2023-03-23T09:43:54;5.97;;;1.00;;
78224;SDS011;67498;53.650;10.090;2023-03-23T09:49:11;3.03;;;0.70;;
78224;SDS011;67498;53.650;10.090;2023-03-23T09:51:42;4.03;;;0.77;;
78224;SDS011;67498;53.650;10.090;2023-03-23T09:54:28;8.82;;;1.08;;
78224;SDS011;67498;53.650;10.090;2023-03-23T09:56:54;4.53;;;0.65;;
78224;SDS011;67498;53.650;10.090;2023-03-23T10:02:48;4.23;;;0.90;;
78224;SDS011;67498;53.650;10.090;2023-03-23T10:04:54;6.00;;;0.90;;
78224;SDS011;67498;53.650;10.090;2023-03-23T10:07:20;7.47;;;0.50;;
78224;SDS011;67498;53.650;10.090;2023-03-23T10:09:47;4.53;;;0.77;;
78224;SDS011;67498;53.650;10.090;2023-03-23T10:14:48;5.88;;;0.90;;
78224;SDS011;67498;53.650;10.090;2023-03-23T10:17:19;6.50;;;1.37;;
78224;SDS011;67498;53.650;10.090;2023-03-23T10:19:54;6.88;;;0.85;;
78224;SDS011;67498;53.650;10.090;2023-03-23T10:22:24;4.82;;;0.70;;
78224;SDS011;67498;53.650;10.090;2023-03-23T10:24:51;2.92;;;0.57;;
78224;SDS011;67498;53.650;10.090;2023-03-23T10:27:26;5.30;;;0.45;;
78224;SDS011;67498;53.650;10.090;2023-03-23T10:29:55;6.67;;;0.70;;
78224;SDS011;67498;53.650;10.090;2023-03-23T10:32:36;7.90;;;0.93;;
78224;SDS011;67498;53.650;10.090;2023-03-23T10:35:03;5.78;;;0.98;;
78224;SDS011;67498;53.650;10.090;2023-03-23T10:37:31;5.45;;;0.68;;
78224;SDS011;67498;53.650;10.090;2023-03-23T10:39:58;6.78;;;1.08;;
78224;SDS011;67498;53.650;10.090;2023-03-23T10:42:30;9.80;;;0.93;;
78224;SDS011;67498;53.650;10.090;2023-03-23T10:44:57;4.40;;;0.70;;
78224;SDS011;67498;53.650;10.090;2023-03-23T10:47:23;3.00;;;0.60;;
78224;SDS011;67498;53.650;10.090;2023-03-23T10:49:49;3.87;;;0.53;;
78224;SDS011;67498;53.650;10.090;2023-03-23T10:52:26;6.53;;;0.80;;
78224;SDS011;67498;53.650;10.090;2023-03-23T10:55:04;3.53;;;0.57;;
78224;SDS011;67498;53.650;10.090;2023-03-23T10:57:31;6.35;;;0.60;;
78224;SDS011;67498;53.650;10.090;2023-03-23T11:00:39;5.73;;;0.80;;
78224;SDS011;67498;53.650;10.090;2023-03-23T11:02:48;3.10;;;0.50;;
78224;SDS011;67498;53.650;10.090;2023-03-23T11:05:23;4.82;;;0.60;;
78224;SDS011;67498;53.650;10.090;2023-03-23T11:07:55;3.15;;;0.30;;
78224;SDS011;67498;53.650;10.090;2023-03-23T11:12:46;4.63;;;0.70;;
78224;SDS011;67498;53.650;10.090;2023-03-23T11:15:35;9.60;;;1.17;;
78224;SDS011;67498;53.650;10.090;2023-03-23T11:18:03;5.82;;;0.68;;
78224;SDS011;67498;53.650;10.090;2023-03-23T11:20:29;4.20;;;0.67;;
78224;SDS011;67498;53.650;10.090;2023-03-23T11:22:55;2.83;;;0.60;;
78224;SDS011;67498;53.650;10.090;2023-03-23T11:25:21;3.15;;;0.40;;
78224;SDS011;67498;53.650;10.090;2023-03-23T11:27:47;5.50;;;0.97;;
78224;SDS011;67498;53.650;10.090;2023-03-23T11:30:20;6.20;;;0.70;;
78224;SDS011;67498;53.650;10.090;2023-03-23T11:32:47;4.03;;;0.70;;
78224;SDS011;67498;53.650;10.090;2023-03-23T11:35:20;3.53;;;0.50;;
78224;SDS011;67498;53.650;10.090;2023-03-23T11:37:51;6.43;;;0.93;;
78224;SDS011;67498;53.650;10.090;2023-03-23T11:40:19;7.10;;;0.75;;
78224;SDS011;67498;53.650;10.090;2023-03-23T11:42:47;2.37;;;0.40;;
78224;SDS011;67498;53.650;10.090;2023-03-23T11:47:43;9.23;;;1.67;;
78224;SDS011;67498;53.650;10.090;2023-03-23T11:50:24;9.55;;;0.90;;
78224;SDS011;67498;53.650;10.090;2023-03-23T11:53:01;4.47;;;0.68;;
78224;SDS011;67498;53.650;10.090;2023-03-23T11:55:31;7.80;;;1.03;;
78224;SDS011;67498;53.650;10.090;2023-03-23T11:58:00;4.80;;;0.60;;
78224;SDS011;67498;53.650;10.090;2023-03-23T12:00:25;6.88;;;1.40;;
78224;SDS011;67498;53.650;10.090;2023-03-23T12:02:59;6.70;;;0.60;;
78224;SDS011;67498;53.650;10.090;2023-03-23T12:05:29;4.03;;;0.52;;
78224;SDS011;67498;53.650;10.090;2023-03-23T12:08:02;7.63;;;1.17;;
78224;SDS011;67498;53.650;10.090;2023-03-23T12:20:48;7.03;;;1.13;;
78224;SDS011;67498;53.650;10.090;2023-03-23T12:30:58;8.43;;;1.13;;
78224;SDS011;67498;53.650;10.090;2023-03-23T12:38:39;13.88;;;1.77;;
78224;SDS011;67498;53.650;10.090;2023-03-23T12:49:03;9.07;;;1.15;;
78224;SDS011;67498;53.650;10.090;2023-03-23T12:51:51;8.45;;;1.08;;
78224;SDS011;67498;53.650;10.090;2023-03-23T13:01:54;7.38;;;1.40;;
78224;SDS011;67498;53.650;10.090;2023-03-23T13:04:25;10.73;;;1.45;;
78224;SDS011;67498;53.650;10.090;2023-03-23T13:06:51;5.97;;;1.20;;
78224;SDS011;67498;53.650;10.090;2023-03-23T13:09:28;8.70;;;1.50;;
78224;SDS011;67498;53.650;10.090;2023-03-23T13:11:55;8.48;;;1.70;;
78224;SDS011;67498;53.650;10.090;2023-03-23T13:22:17;6.13;;;1.13;;
78224;SDS011;67498;53.650;10.090;2023-03-23T13:24:49;9.88;;;1.60;;
78224;SDS011;67498;53.650;10.090;2023-03-23T13:27:15;13.52;;;1.23;;
78224;SDS011;67498;53.650;10.090;2023-03-23T13:29:45;5.55;;;1.05;;
78224;SDS011;67498;53.650;10.090;2023-03-23T13:32:17;6.73;;;1.17;;
78224;SDS011;67498;53.650;10.090;2023-03-23T13:34:43;5.88;;;1.35;;
78224;SDS011;67498;53.650;10.090;2023-03-23T13:37:19;5.50;;;1.48;;
78224;SDS011;67498;53.650;10.090;2023-03-23T13:44:41;7.05;;;1.15;;
78224;SDS011;67498;53.650;10.090;2023-03-23T13:47:16;5.28;;;1.15;;
78224;SDS011;67498;53.650;10.090;2023-03-23T13:50:01;5.07;;;0.90;;
78224;SDS011;67498;53.650;10.090;2023-03-23T13:52:37;4.07;;;0.70;;
78224;SDS011;67498;53.650;10.090;2023-03-23T14:02:49;6.78;;;0.52;;
78224;SDS011;67498;53.650;10.090;2023-03-23T14:07:59;2.10;;;0.40;;
78224;SDS011;67498;53.650;10.090;2023-03-23T14:10:30;4.82;;;0.47;;
78224;SDS011;67498;53.650;10.090;2023-03-23T14:12:56;2.03;;;0.30;;
78224;SDS011;67498;53.650;10.090;2023-03-23T14:15:27;2.38;;;0.50;;
78224;SDS011;67498;53.650;10.090;2023-03-23T14:17:53;4.40;;;0.50;;
78224;SDS011;67498;53.650;10.090;2023-03-23T14:20:25;4.27;;;0.50;;
78224;SDS011;67498;53.650;10.090;2023-03-23T14:22:53;1.40;;;0.20;;
78224;SDS011;67498;53.650;10.090;2023-03-23T14:25:18;3.38;;;0.50;;
78224;SDS011;67498;53.650;10.090;2023-03-23T14:27:45;4.30;;;0.60;;
78224;SDS011;67498;53.650;10.090;2023-03-23T14:30:15;1.83;;;0.40;;
78224;SDS011;67498;53.650;10.090;2023-03-23T14:32:41;3.58;;;0.50;;
78224;SDS011;67498;53.650;10.090;2023-03-23T14:35:08;4.80;;;0.87;;
78224;SDS011;67498;53.650;10.090;2023-03-23T14:37:34;2.97;;;0.57;;
78224;SDS011;67498;53.650;10.090;2023-03-23T14:40:03;2.38;;;0.30;;
78224;SDS011;67498;53.650;10.090;2023-03-23T14:42:34;2.00;;;0.32;;
78224;SDS011;67498;53.650;10.090;2023-03-23T14:45:00;2.10;;;0.43;;
78224;SDS011;67498;53.650;10.090;2023-03-23T14:47:30;4.87;;;0.63;;
78224;SDS011;67498;53.650;10.090;2023-03-23T14:49:57;1.92;;;0.40;;
78224;SDS011;67498;53.650;10.090;2023-03-23T14:52:24;6.47;;;0.52;;
78224;SDS011;67498;53.650;10.090;2023-03-23T14:54:50;3.58;;;0.55;;
78224;SDS011;67498;53.650;10.090;2023-03-23T14:57:17;4.10;;;0.40;;
78224;SDS011;67498;53.650;10.090;2023-03-23T14:59:42;3.15;;;0.57;;
78224;SDS011;67498;53.650;10.090;2023-03-23T15:02:16;3.63;;;0.70;;
78224;SDS011;67498;53.650;10.090;2023-03-23T15:04:42;7.00;;;0.45;;
78224;SDS011;67498;53.650;10.090;2023-03-23T15:07:09;2.83;;;0.60;;
78224;SDS011;67498;53.650;10.090;2023-03-23T15:09:34;3.50;;;0.67;;
78224;SDS011;67498;53.650;10.090;2023-03-23T15:12:03;7.35;;;0.77;;
78224;SDS011;67498;53.650;10.090;2023-03-23T15:14:30;5.53;;;0.50;;
78224;SDS011;67498;53.650;10.090;2023-03-23T15:16:56;2.67;;;0.40;;
78224;SDS011;67498;53.650;10.090;2023-03-23T15:19:27;3.08;;;0.47;;
78224;SDS011;67498;53.650;10.090;2023-03-23T15:21:56;5.22;;;0.80;;
78224;SDS011;67498;53.650;10.090;2023-03-23T15:24:38;8.45;;;0.80;;
78224;SDS011;67498;53.650;10.090;2023-03-23T15:27:11;2.88;;;0.50;;
78224;SDS011;67498;53.650;10.090;2023-03-23T15:29:47;2.33;;;0.47;;
78224;SDS011;67498;53.650;10.090;2023-03-23T15:32:13;2.03;;;0.40;;
78224;SDS011;67498;53.650;10.090;2023-03-23T15:34:38;2.83;;;0.70;;
78224;SDS011;67498;53.650;10.090;2023-03-23T15:37:17;2.78;;;0.40;;
78224;SDS011;67498;53.650;10.090;2023-03-23T15:39:43;2.60;;;0.63;;
78224;SDS011;67498;53.650;10.090;2023-03-23T15:42:19;4.57;;;1.00;;
78224;SDS011;67498;53.650;10.090;2023-03-23T15:44:44;5.40;;;0.90;;
78224;SDS011;67498;53.650;10.090;2023-03-23T15:47:19;4.10;;;0.77;;
78224;SDS011;67498;53.650;10.090;2023-03-23T15:49:45;4.40;;;0.40;;
78224;SDS011;67498;53.650;10.090;2023-03-23T15:52:11;5.00;;;0.60;;
78224;SDS011;67498;53.650;10.090;2023-03-23T15:54:37;5.72;;;1.05;;
78224;SDS011;67498;53.650;10.090;2023-03-23T15:57:02;4.33;;;1.13;;
78224;SDS011;67498;53.650;10.090;2023-03-23T15:59:27;2.83;;;0.60;;
78224;SDS011;67498;53.650;10.090;2023-03-23T16:01:52;4.30;;;0.90;;
78224;SDS011;67498;53.650;10.090;2023-03-23T16:04:18;3.83;;;0.80;;
78224;SDS011;67498;53.650;10.090;2023-03-23T16:06:43;3.13;;;0.50;;
78224;SDS011;67498;53.650;10.090;2023-03-23T16:09:13;9.23;;;1.98;;
78224;SDS011;67498;53.650;10.090;2023-03-23T16:11:39;4.05;;;1.25;;
78224;SDS011;67498;53.650;10.090;2023-03-23T16:14:04;35.33;;;11.30;;
78224;SDS011;67498;53.650;10.090;2023-03-23T16:16:31;9.87;;;3.00;;